Time;durP1;ratioP1;P1;durP2;ratioP2;P2;SDS_P1;SDS_P2;PMS_P1;PMS_P2;Temp;Humidity;BMP_temperature;BMP_pressure;BME280_temperature;BME280_humidity;BME280_pressure;Samples;Min_cycle;Max_cycle;Signal;HPM_P1;HPM_P2
2023/01/07 00:01:23;;;;;;;18.33;15.63;;;;;;;;;;6210831;23;20453;-65
2023/01/07 00:03:49;;;;;;;18.83;15.00;;;;;;;;;;6210459;23;20390;-65
2023/01/07 00:06:18;;;;;;;19.80;15.83;;;;;;;;;;6208761;23;20464;-66
2023/01/07 00:08:45;;;;;;;19.93;15.40;;;;;;;;;;6183197;23;20465;-65
2023/01/07 00:11:18;;;;;;;18.63;15.73;;;;;;;;;;6210670;23;20753;-65
2023/01/07 00:13:44;;;;;;;18.73;15.80;;;;;;;;;;6209404;23;20434;-65
2023/01/07 00:16:14;;;;;;;18.93;15.60;;;;;;;;;;6209229;23;20846;-65
2023/01/07 00:18:43;;;;;;;18.03;16.13;;;;;;;;;;6210142;23;20414;-65
2023/01/07 00:21:15;;;;;;;20.57;17.20;;;;;;;;;;6209931;23;20510;-65
2023/01/07 00:23:41;;;;;;;17.03;15.10;;;;;;;;;;6210264;23;20355;-65
2023/01/07 00:26:08;;;;;;;18.77;15.90;;;;;;;;;;6210003;23;20711;-65
2023/01/07 00:28:34;;;;;;;20.30;16.73;;;;;;;;;;6182386;23;20434;-65
2023/01/07 00:31:00;;;;;;;19.00;16.70;;;;;;;;;;6209678;23;20703;-65
2023/01/07 00:33:27;;;;;;;18.27;16.50;;;;;;;;;;6183106;23;20382;-65
2023/01/07 00:36:07;;;;;;;18.90;16.90;;;;;;;;;;6184044;23;20386;-65
2023/01/07 00:38:33;;;;;;;19.47;17.37;;;;;;;;;;6182564;23;20375;-65
2023/01/07 00:40:58;;;;;;;20.30;18.33;;;;;;;;;;6210462;23;20391;-65
2023/01/07 00:43:25;;;;;;;20.17;18.17;;;;;;;;;;6209270;23;20157;-65
2023/01/07 00:45:51;;;;;;;20.67;18.00;;;;;;;;;;6209362;23;20167;-65
2023/01/07 00:48:17;;;;;;;21.83;18.60;;;;;;;;;;6209466;23;20398;-65
2023/01/07 00:50:43;;;;;;;21.20;19.00;;;;;;;;;;6181723;23;20180;-66
2023/01/07 00:53:09;;;;;;;20.63;18.50;;;;;;;;;;6211571;23;20759;-65
2023/01/07 00:55:34;;;;;;;19.70;17.80;;;;;;;;;;6212138;23;20152;-65
2023/01/07 00:57:59;;;;;;;19.80;17.80;;;;;;;;;;6210317;23;20152;-65
2023/01/07 01:00:25;;;;;;;20.03;18.10;;;;;;;;;;6210037;23;20175;-65
2023/01/07 01:02:51;;;;;;;21.63;19.33;;;;;;;;;;6184478;23;20164;-66
2023/01/07 01:05:19;;;;;;;19.80;17.80;;;;;;;;;;6211764;23;20170;-66
2023/01/07 01:07:44;;;;;;;20.93;18.73;;;;;;;;;;6210887;23;20370;-66
2023/01/07 01:10:11;;;;;;;19.60;17.70;;;;;;;;;;6208265;23;20387;-66
2023/01/07 01:12:36;;;;;;;21.50;19.40;;;;;;;;;;6211001;23;20151;-66
2023/01/07 01:15:02;;;;;;;21.90;18.80;;;;;;;;;;6209459;23;20446;-66
2023/01/07 01:17:28;;;;;;;22.10;19.70;;;;;;;;;;6209831;23;20198;-66
2023/01/07 01:19:53;;;;;;;20.80;18.90;;;;;;;;;;6208472;23;20462;-65
2023/01/07 01:22:18;;;;;;;18.93;17.20;;;;;;;;;;6207119;23;20622;-65
2023/01/07 01:24:44;;;;;;;20.30;18.13;;;;;;;;;;6183249;23;20151;-65
2023/01/07 01:27:09;;;;;;;20.70;18.60;;;;;;;;;;6209727;23;20199;-66
2023/01/07 01:29:34;;;;;;;22.27;19.60;;;;;;;;;;6207772;23;20143;-66
2023/01/07 01:32:00;;;;;;;21.73;19.63;;;;;;;;;;6184193;23;20544;-66
2023/01/07 01:34:25;;;;;;;20.17;18.17;;;;;;;;;;6211191;23;20151;-66
2023/01/07 01:36:50;;;;;;;21.27;19.30;;;;;;;;;;6211442;23;20235;-66
2023/01/07 01:39:16;;;;;;;21.93;19.63;;;;;;;;;;6208792;23;20600;-66
2023/01/07 01:41:41;;;;;;;19.90;18.00;;;;;;;;;;6210177;23;20243;-66
2023/01/07 01:44:25;;;;;;;20.30;18.40;;;;;;;;;;6207331;23;20151;-67
2023/01/07 01:46:50;;;;;;;21.33;19.30;;;;;;;;;;6206597;23;20269;-66
2023/01/07 01:49:27;;;;;;;19.80;17.80;;;;;;;;;;6208004;23;20445;-66
2023/01/07 01:51:54;;;;;;;21.27;19.00;;;;;;;;;;6209649;23;20191;-65
2023/01/07 01:54:20;;;;;;;21.00;18.90;;;;;;;;;;6181648;23;20382;-66
2023/01/07 01:56:48;;;;;;;21.63;19.63;;;;;;;;;;6182954;23;20383;-66
2023/01/07 01:59:16;;;;;;;20.83;18.70;;;;;;;;;;6208831;23;20861;-66
2023/01/07 02:01:42;;;;;;;22.20;19.97;;;;;;;;;;6182100;23;20399;-66
2023/01/07 02:04:09;;;;;;;24.53;20.57;;;;;;;;;;6209933;23;20703;-66
2023/01/07 02:06:41;;;;;;;22.53;20.30;;;;;;;;;;6210167;23;20604;-66
2023/01/07 02:09:07;;;;;;;22.17;19.97;;;;;;;;;;6208960;23;21040;-66
2023/01/07 02:11:32;;;;;;;22.03;19.77;;;;;;;;;;6209785;23;20462;-66
2023/01/07 02:14:04;;;;;;;21.80;19.60;;;;;;;;;;6209907;23;20145;-66
2023/01/07 02:16:40;;;;;;;21.30;19.30;;;;;;;;;;6183776;23;20600;-65
2023/01/07 02:19:11;;;;;;;21.53;19.27;;;;;;;;;;6181953;23;20378;-66
2023/01/07 02:21:42;;;;;;;21.23;19.33;;;;;;;;;;6209178;23;20399;-66
2023/01/07 02:24:17;;;;;;;21.87;19.77;;;;;;;;;;6209830;23;20402;-66
2023/01/07 02:26:58;;;;;;;21.47;19.40;;;;;;;;;;6208768;23;20402;-66
2023/01/07 02:29:42;;;;;;;20.47;18.47;;;;;;;;;;6209789;23;20439;-66
2023/01/07 02:32:22;;;;;;;21.80;19.47;;;;;;;;;;6210673;23;20367;-66
2023/01/07 02:35:07;;;;;;;18.53;16.77;;;;;;;;;;6211049;23;20363;-66
2023/01/07 02:37:51;;;;;;;20.50;18.60;;;;;;;;;;6195187;23;20421;-66
2023/01/07 02:40:34;;;;;;;22.57;20.43;;;;;;;;;;6185024;23;20395;-66
2023/01/07 02:43:10;;;;;;;20.50;18.60;;;;;;;;;;6186069;23;20371;-66
2023/01/07 02:45:39;;;;;;;19.87;17.97;;;;;;;;;;6185931;23;20987;-66
2023/01/07 02:48:07;;;;;;;20.67;18.77;;;;;;;;;;6211759;23;20383;-66
2023/01/07 02:50:32;;;;;;;19.63;17.93;;;;;;;;;;6184395;23;20398;-66
2023/01/07 02:52:57;;;;;;;18.63;16.90;;;;;;;;;;6229612;23;20367;-67
2023/01/07 02:55:38;;;;;;;20.63;18.73;;;;;;;;;;6240653;23;20143;-66
2023/01/07 02:58:22;;;;;;;19.57;17.87;;;;;;;;;;6240803;23;20131;-66
2023/01/07 03:00:59;;;;;;;19.03;17.40;;;;;;;;;;6239866;23;20401;-66
2023/01/07 03:03:43;;;;;;;18.83;17.13;;;;;;;;;;6214337;23;20379;-66
2023/01/07 03:06:27;;;;;;;18.97;17.27;;;;;;;;;;6238675;23;20426;-67
2023/01/07 03:08:58;;;;;;;19.13;17.33;;;;;;;;;;6227934;23;20398;-66
2023/01/07 03:11:25;;;;;;;19.40;17.50;;;;;;;;;;6184522;23;20862;-66
2023/01/07 03:13:57;;;;;;;20.23;18.33;;;;;;;;;;6209982;23;20454;-66
2023/01/07 03:16:32;;;;;;;19.37;17.57;;;;;;;;;;6211436;23;20363;-66
2023/01/07 03:18:59;;;;;;;18.53;16.90;;;;;;;;;;6211845;23;20370;-65
2023/01/07 03:21:26;;;;;;;18.70;17.07;;;;;;;;;;6210847;23;20405;-66
2023/01/07 03:23:53;;;;;;;20.97;18.97;;;;;;;;;;6211593;23;20386;-65
2023/01/07 03:26:21;;;;;;;20.13;18.27;;;;;;;;;;6210909;23;20464;-65
2023/01/07 03:28:48;;;;;;;19.50;17.80;;;;;;;;;;6210239;23;20420;-65
2023/01/07 03:31:14;;;;;;;20.27;18.37;;;;;;;;;;6210044;23;20382;-65
2023/01/07 03:33:39;;;;;;;19.60;17.80;;;;;;;;;;6185322;23;20371;-66
2023/01/07 03:36:05;;;;;;;19.97;17.97;;;;;;;;;;6208557;23;20491;-65
2023/01/07 03:38:32;;;;;;;20.63;18.63;;;;;;;;;;6182505;23;20159;-65
2023/01/07 03:40:57;;;;;;;20.30;18.40;;;;;;;;;;6211122;23;20383;-65
2023/01/07 03:43:25;;;;;;;20.67;18.87;;;;;;;;;;6210980;23;20373;-65
2023/01/07 03:45:51;;;;;;;21.30;19.40;;;;;;;;;;6210009;23;20168;-65
2023/01/07 03:48:18;;;;;;;21.80;19.90;;;;;;;;;;6210772;23;20462;-65
2023/01/07 03:50:43;;;;;;;21.60;19.60;;;;;;;;;;6210119;23;20375;-65
2023/01/07 03:53:09;;;;;;;20.43;18.63;;;;;;;;;;6184173;23;20379;-65
2023/01/07 03:55:34;;;;;;;21.20;19.27;;;;;;;;;;6210975;23;20148;-65
2023/01/07 03:57:59;;;;;;;22.23;20.23;;;;;;;;;;6211193;23;20194;-65
2023/01/07 04:00:25;;;;;;;22.37;20.20;;;;;;;;;;6209786;23;20178;-65
2023/01/07 04:02:50;;;;;;;21.27;19.37;;;;;;;;;;6212273;23;20615;-65
2023/01/07 04:05:18;;;;;;;19.60;17.87;;;;;;;;;;6210620;23;20171;-65
2023/01/07 04:07:43;;;;;;;21.47;19.50;;;;;;;;;;6211399;23;20148;-65
2023/01/07 04:10:08;;;;;;;21.57;19.57;;;;;;;;;;6211645;23;20386;-66
2023/01/07 04:12:34;;;;;;;20.07;18.27;;;;;;;;;;6212052;23;20168;-66
2023/01/07 04:14:59;;;;;;;20.63;18.73;;;;;;;;;;6211153;23;20155;-65
2023/01/07 04:17:24;;;;;;;20.97;18.90;;;;;;;;;;6211779;23;20227;-66
2023/01/07 04:19:50;;;;;;;19.30;17.50;;;;;;;;;;6184199;23;20148;-66
2023/01/07 04:22:15;;;;;;;19.83;18.07;;;;;;;;;;6211588;23;20238;-66
2023/01/07 04:24:40;;;;;;;21.50;19.40;;;;;;;;;;6211639;23;20206;-66
2023/01/07 04:27:06;;;;;;;19.20;17.53;;;;;;;;;;6209819;23;20168;-66
2023/01/07 04:29:31;;;;;;;20.97;19.03;;;;;;;;;;6183472;23;20227;-66
2023/01/07 04:31:56;;;;;;;18.93;17.10;;;;;;;;;;6181990;23;20179;-66
2023/01/07 04:34:22;;;;;;;19.60;17.63;;;;;;;;;;6210688;23;20159;-66
2023/01/07 04:36:47;;;;;;;20.37;18.27;;;;;;;;;;6208650;23;20202;-66
2023/01/07 04:39:12;;;;;;;20.70;18.70;;;;;;;;;;6209208;23;20152;-66
2023/01/07 04:41:38;;;;;;;19.00;17.20;;;;;;;;;;6183136;23;20218;-66
2023/01/07 04:44:03;;;;;;;18.53;16.83;;;;;;;;;;6211134;23;20147;-66
2023/01/07 04:46:29;;;;;;;19.20;17.30;;;;;;;;;;6209042;23;20172;-66
2023/01/07 04:48:54;;;;;;;17.07;15.47;;;;;;;;;;6209452;23;20223;-66
2023/01/07 04:51:20;;;;;;;19.93;17.93;;;;;;;;;;6211593;23;20168;-66
2023/01/07 04:53:45;;;;;;;18.17;16.30;;;;;;;;;;6210313;23;20625;-66
2023/01/07 04:56:10;;;;;;;19.07;17.20;;;;;;;;;;6183674;23;20152;-66
2023/01/07 04:58:36;;;;;;;18.87;15.73;;;;;;;;;;6183208;23;20159;-66
2023/01/07 05:01:05;;;;;;;18.17;16.37;;;;;;;;;;6210556;23;20167;-66
2023/01/07 05:03:33;;;;;;;19.40;17.53;;;;;;;;;;6183832;23;20159;-66
2023/01/07 05:05:58;;;;;;;16.57;15.07;;;;;;;;;;6208998;23;20406;-66
2023/01/07 05:08:23;;;;;;;21.00;17.20;;;;;;;;;;6180757;23;20482;-66
2023/01/07 05:10:49;;;;;;;16.93;15.37;;;;;;;;;;6180613;23;20175;-66
2023/01/07 05:13:15;;;;;;;21.80;16.33;;;;;;;;;;6210566;23;20596;-65
2023/01/07 05:15:40;;;;;;;16.13;14.53;;;;;;;;;;6210391;23;20143;-66
2023/01/07 05:18:06;;;;;;;19.20;17.07;;;;;;;;;;6209212;23;20152;-66
2023/01/07 05:20:31;;;;;;;17.93;16.13;;;;;;;;;;6183619;23;20195;-66
2023/01/07 05:22:56;;;;;;;18.07;16.17;;;;;;;;;;6208753;23;20166;-66
2023/01/07 05:25:21;;;;;;;17.37;15.53;;;;;;;;;;6210094;23;20174;-66
2023/01/07 05:27:47;;;;;;;16.60;14.90;;;;;;;;;;6209214;23;20140;-66
2023/01/07 05:30:12;;;;;;;16.87;14.70;;;;;;;;;;6209397;23;20171;-66
2023/01/07 05:32:37;;;;;;;16.87;14.67;;;;;;;;;;6182411;23;20151;-66
2023/01/07 05:35:03;;;;;;;17.63;15.97;;;;;;;;;;6208891;23;20144;-66
2023/01/07 05:37:28;;;;;;;16.10;14.40;;;;;;;;;;6207790;23;20170;-66
2023/01/07 05:39:53;;;;;;;17.33;15.43;;;;;;;;;;6210256;23;20653;-65
2023/01/07 05:42:19;;;;;;;15.90;14.40;;;;;;;;;;6182397;23;20155;-66
2023/01/07 05:44:44;;;;;;;20.13;14.80;;;;;;;;;;6183964;23;20591;-66
2023/01/07 05:47:09;;;;;;;14.57;13.20;;;;;;;;;;6209300;23;20199;-66
2023/01/07 05:49:34;;;;;;;19.70;14.87;;;;;;;;;;6209858;23;20147;-66
2023/01/07 05:52:00;;;;;;;15.57;14.00;;;;;;;;;;6209026;23;20140;-66
2023/01/07 05:54:25;;;;;;;13.87;12.43;;;;;;;;;;6208578;23;20144;-66
2023/01/07 05:56:50;;;;;;;18.57;15.80;;;;;;;;;;6183767;23;20187;-66
2023/01/07 05:59:16;;;;;;;18.73;16.73;;;;;;;;;;6207909;23;20242;-66
2023/01/07 06:01:41;;;;;;;18.40;15.97;;;;;;;;;;6207141;23;20675;-66
2023/01/07 06:04:07;;;;;;;16.20;14.60;;;;;;;;;;6210124;23;20206;-66
2023/01/07 06:06:32;;;;;;;16.80;14.80;;;;;;;;;;6185876;23;20178;-66
2023/01/07 06:08:57;;;;;;;14.67;13.07;;;;;;;;;;6183806;23;20206;-66
2023/01/07 06:11:23;;;;;;;14.37;13.07;;;;;;;;;;6184067;23;20202;-66
2023/01/07 06:13:48;;;;;;;14.03;11.83;;;;;;;;;;6209411;23;20164;-66
2023/01/07 06:16:13;;;;;;;13.63;11.60;;;;;;;;;;6184792;23;20596;-66
2023/01/07 06:18:38;;;;;;;12.93;11.60;;;;;;;;;;6211245;23;20151;-66
2023/01/07 06:21:04;;;;;;;13.23;12.00;;;;;;;;;;6185312;23;20227;-66
2023/01/07 06:23:30;;;;;;;15.73;12.30;;;;;;;;;;6210974;23;20152;-66
2023/01/07 06:25:55;;;;;;;13.17;11.93;;;;;;;;;;6185352;23;20262;-66
2023/01/07 06:28:20;;;;;;;12.23;11.03;;;;;;;;;;6210772;23;20367;-66
2023/01/07 06:30:46;;;;;;;14.10;11.80;;;;;;;;;;6210484;23;20164;-66
2023/01/07 06:33:12;;;;;;;11.60;10.43;;;;;;;;;;6211517;23;20664;-66
2023/01/07 06:35:38;;;;;;;17.30;11.77;;;;;;;;;;6211771;23;20432;-66
2023/01/07 06:38:03;;;;;;;14.07;11.57;;;;;;;;;;6210835;23;20445;-68
2023/01/07 06:40:28;;;;;;;14.40;12.03;;;;;;;;;;6210619;23;20163;-67
2023/01/07 06:42:54;;;;;;;12.57;10.30;;;;;;;;;;6212373;23;20658;-66
2023/01/07 06:45:19;;;;;;;13.30;11.03;;;;;;;;;;6207910;23;20154;-66
2023/01/07 06:47:44;;;;;;;13.00;10.97;;;;;;;;;;6212283;23;20245;-66
2023/01/07 06:50:10;;;;;;;12.00;10.37;;;;;;;;;;6184382;23;20171;-66
2023/01/07 06:52:35;;;;;;;13.97;11.50;;;;;;;;;;6210511;23;20144;-66
2023/01/07 06:55:03;;;;;;;12.17;10.97;;;;;;;;;;6211704;23;20140;-66
2023/01/07 06:57:28;;;;;;;11.63;9.47;;;;;;;;;;6210262;23;20153;-66
2023/01/07 06:59:53;;;;;;;13.93;10.10;;;;;;;;;;6209848;23;20505;-66
2023/01/07 07:02:20;;;;;;;10.67;9.47;;;;;;;;;;6210925;23;20148;-66
2023/01/07 07:04:45;;;;;;;10.20;9.20;;;;;;;;;;6183835;23;20217;-66
2023/01/07 07:07:11;;;;;;;11.53;10.37;;;;;;;;;;6183535;23;20908;-66
2023/01/07 07:09:36;;;;;;;12.43;8.50;;;;;;;;;;6208395;23;20190;-65
2023/01/07 07:12:01;;;;;;;10.10;9.00;;;;;;;;;;6184110;23;20144;-65
2023/01/07 07:14:27;;;;;;;12.00;9.93;;;;;;;;;;6184246;23;20191;-65
2023/01/07 07:16:52;;;;;;;9.10;7.80;;;;;;;;;;6183045;23;20167;-65
2023/01/07 07:19:17;;;;;;;14.93;9.27;;;;;;;;;;6207439;23;20583;-66
2023/01/07 07:21:42;;;;;;;13.03;9.23;;;;;;;;;;6181549;23;20302;-67
2023/01/07 07:24:08;;;;;;;10.93;9.00;;;;;;;;;;6185370;23;20152;-66
2023/01/07 07:26:34;;;;;;;17.03;9.03;;;;;;;;;;6185664;23;20246;-68
2023/01/07 07:28:59;;;;;;;9.33;8.13;;;;;;;;;;6207238;23;20375;-66
2023/01/07 07:31:24;;;;;;;11.80;8.80;;;;;;;;;;6185567;23;20834;-66
2023/01/07 07:33:49;;;;;;;8.80;8.00;;;;;;;;;;6213293;23;20154;-65
2023/01/07 07:36:15;;;;;;;10.20;8.23;;;;;;;;;;6185267;23;20152;-66
2023/01/07 07:38:40;;;;;;;8.63;7.83;;;;;;;;;;6211613;23;20147;-66
2023/01/07 07:41:05;;;;;;;9.43;7.57;;;;;;;;;;6212429;23;20576;-66
2023/01/07 07:43:33;;;;;;;9.70;8.37;;;;;;;;;;6211058;23;20155;-66
2023/01/07 07:45:58;;;;;;;10.60;7.77;;;;;;;;;;6210381;23;20225;-65
2023/01/07 07:48:23;;;;;;;10.13;7.17;;;;;;;;;;6184083;23;20871;-65
2023/01/07 07:50:49;;;;;;;9.83;7.90;;;;;;;;;;6209962;23;20168;-65
2023/01/07 07:53:14;;;;;;;7.83;6.77;;;;;;;;;;6211087;23;20144;-65
2023/01/07 07:55:40;;;;;;;12.37;7.60;;;;;;;;;;6212126;23;20175;-65
2023/01/07 07:58:05;;;;;;;8.20;6.30;;;;;;;;;;6211437;23;20148;-65
2023/01/07 08:00:31;;;;;;;9.60;6.70;;;;;;;;;;6211693;23;20191;-67
2023/01/07 08:02:56;;;;;;;8.27;6.73;;;;;;;;;;6211730;23;20230;-66
2023/01/07 08:05:22;;;;;;;7.83;6.70;;;;;;;;;;6212252;23;20626;-66
2023/01/07 08:07:47;;;;;;;7.17;6.43;;;;;;;;;;6209825;23;20227;-67
2023/01/07 08:10:12;;;;;;;10.83;7.07;;;;;;;;;;6207020;23;20170;-66
2023/01/07 08:12:38;;;;;;;7.33;6.00;;;;;;;;;;6183237;23;20540;-66
2023/01/07 08:15:04;;;;;;;8.03;6.27;;;;;;;;;;6179502;23;20144;-66
2023/01/07 08:17:29;;;;;;;12.27;6.60;;;;;;;;;;6181764;23;20159;-66
2023/01/07 08:19:54;;;;;;;8.53;6.60;;;;;;;;;;6183488;23;20399;-66
2023/01/07 08:22:20;;;;;;;9.40;6.10;;;;;;;;;;6216920;23;20194;-67
2023/01/07 08:24:47;;;;;;;9.00;6.37;;;;;;;;;;6187905;23;20147;-67
2023/01/07 08:27:15;;;;;;;7.33;5.90;;;;;;;;;;6210801;23;20174;-66
2023/01/07 08:29:40;;;;;;;6.90;5.77;;;;;;;;;;6213939;23;20479;-69
2023/01/07 08:32:06;;;;;;;8.30;5.53;;;;;;;;;;6232086;23;20493;-68
2023/01/07 08:34:31;;;;;;;6.23;5.60;;;;;;;;;;6208410;23;20163;-67
2023/01/07 08:36:56;;;;;;;6.80;6.20;;;;;;;;;;6227440;23;20132;-69
2023/01/07 08:39:21;;;;;;;6.47;5.57;;;;;;;;;;6229669;23;20151;-69
2023/01/07 08:41:47;;;;;;;10.73;6.20;;;;;;;;;;6233254;23;20207;-67
2023/01/07 08:44:12;;;;;;;6.33;5.73;;;;;;;;;;6230311;23;20532;-66
2023/01/07 08:46:37;;;;;;;7.43;4.90;;;;;;;;;;6234521;23;20177;-68
2023/01/07 08:49:03;;;;;;;6.30;5.30;;;;;;;;;;6232124;23;20554;-66
2023/01/07 08:51:28;;;;;;;8.90;5.73;;;;;;;;;;6207164;23;20171;-66
2023/01/07 08:53:53;;;;;;;6.73;4.77;;;;;;;;;;6208042;23;20151;-66
2023/01/07 08:56:19;;;;;;;9.23;5.37;;;;;;;;;;6209761;23;20148;-65
2023/01/07 08:58:44;;;;;;;5.77;5.17;;;;;;;;;;6180887;23;20158;-66
2023/01/07 09:01:09;;;;;;;6.10;5.07;;;;;;;;;;6185160;23;20175;-67
2023/01/07 09:03:35;;;;;;;6.90;5.13;;;;;;;;;;6183249;23;20829;-67
2023/01/07 09:06:02;;;;;;;6.30;5.27;;;;;;;;;;6210923;23;20646;-66
2023/01/07 09:08:28;;;;;;;5.90;5.10;;;;;;;;;;6179751;23;20198;-66
2023/01/07 09:10:53;;;;;;;6.90;5.03;;;;;;;;;;6207879;23;20854;-66
2023/01/07 09:13:18;;;;;;;7.77;4.87;;;;;;;;;;6209567;23;20139;-65
2023/01/07 09:15:44;;;;;;;9.67;5.37;;;;;;;;;;6208209;23;20183;-68
2023/01/07 09:18:09;;;;;;;6.23;4.60;;;;;;;;;;6209439;23;20144;-67
2023/01/07 09:20:34;;;;;;;7.13;5.00;;;;;;;;;;6207508;23;20187;-67
2023/01/07 09:22:59;;;;;;;6.70;4.63;;;;;;;;;;6180242;23;20218;-68
2023/01/07 09:25:25;;;;;;;4.97;4.57;;;;;;;;;;6178432;23;20158;-69
2023/01/07 09:27:50;;;;;;;5.10;4.60;;;;;;;;;;6180968;23;20147;-68
2023/01/07 09:30:16;;;;;;;5.57;4.97;;;;;;;;;;6206409;23;20167;-69
2023/01/07 09:32:42;;;;;;;7.90;4.73;;;;;;;;;;6207405;23;20723;-68
2023/01/07 09:35:07;;;;;;;6.57;4.40;;;;;;;;;;6178078;23;20595;-69
2023/01/07 09:37:32;;;;;;;6.10;3.80;;;;;;;;;;6208960;23;20151;-68
2023/01/07 09:39:59;;;;;;;6.30;4.10;;;;;;;;;;6209883;23;20171;-68
2023/01/07 09:42:42;;;;;;;4.47;4.07;;;;;;;;;;6181100;23;20528;-69
2023/01/07 09:45:09;;;;;;;6.87;4.30;;;;;;;;;;6207709;23;20367;-69
2023/01/07 09:47:36;;;;;;;4.60;4.17;;;;;;;;;;6181069;23;21083;-67
2023/01/07 09:50:25;;;;;;;5.70;4.07;;;;;;;;;;6210901;23;20383;-67
2023/01/07 09:52:51;;;;;;;5.20;3.90;;;;;;;;;;6181030;23;20371;-68
2023/01/07 09:55:22;;;;;;;5.17;3.83;;;;;;;;;;6179503;23;20372;-68
2023/01/07 09:57:48;;;;;;;5.80;3.63;;;;;;;;;;6184034;23;20381;-69
2023/01/07 10:00:19;;;;;;;6.40;4.00;;;;;;;;;;6211157;23;20371;-67
2023/01/07 10:03:03;;;;;;;4.77;3.40;;;;;;;;;;6210757;23;20588;-71
2023/01/07 10:05:40;;;;;;;6.10;3.83;;;;;;;;;;6208687;23;20901;-68
2023/01/07 10:08:27;;;;;;;6.33;4.00;;;;;;;;;;6179683;23;20440;-68
2023/01/07 10:11:12;;;;;;;5.20;3.70;;;;;;;;;;6208373;23;20379;-69
2023/01/07 10:13:37;;;;;;;5.07;3.73;;;;;;;;;;6206492;23;20379;-68
2023/01/07 10:16:17;;;;;;;7.53;3.37;;;;;;;;;;6202825;23;20382;-68
2023/01/07 10:18:48;;;;;;;4.70;3.13;;;;;;;;;;6202252;23;20230;-67
2023/01/07 10:21:23;;;;;;;4.27;3.10;;;;;;;;;;6179930;23;20433;-67
2023/01/07 10:23:50;;;;;;;5.23;4.00;;;;;;;;;;6208796;23;20537;-67
2023/01/07 10:26:36;;;;;;;4.70;3.70;;;;;;;;;;6205988;23;20402;-66
2023/01/07 10:29:08;;;;;;;3.70;3.40;;;;;;;;;;6207201;23;20413;-65
2023/01/07 10:31:35;;;;;;;9.10;3.17;;;;;;;;;;6206869;23;20415;-67
2023/01/07 10:34:00;;;;;;;4.80;3.20;;;;;;;;;;6179940;23;20957;-67
2023/01/07 10:36:25;;;;;;;6.17;2.90;;;;;;;;;;6211490;23;20395;-67
2023/01/07 10:38:58;;;;;;;2.73;2.53;;;;;;;;;;6209475;23;20571;-67
2023/01/07 10:41:27;;;;;;;3.83;2.33;;;;;;;;;;6211052;23;20650;-68
2023/01/07 10:44:05;;;;;;;3.97;2.80;;;;;;;;;;6185179;23;20406;-67
2023/01/07 10:46:49;;;;;;;4.70;3.40;;;;;;;;;;6209175;23;20399;-67
2023/01/07 10:49:21;;;;;;;4.90;2.40;;;;;;;;;;6209833;23;20374;-67
2023/01/07 10:51:58;;;;;;;3.10;2.60;;;;;;;;;;6211013;23;20387;-67
2023/01/07 10:54:33;;;;;;;5.07;2.77;;;;;;;;;;6185264;23;21017;-67
2023/01/07 10:57:04;;;;;;;3.80;2.50;;;;;;;;;;6185898;23;20817;-67
2023/01/07 10:59:29;;;;;;;4.37;2.77;;;;;;;;;;6211673;23;20375;-67
2023/01/07 11:01:56;;;;;;;4.80;3.03;;;;;;;;;;6212297;23;20393;-66
2023/01/07 11:04:21;;;;;;;4.73;2.70;;;;;;;;;;6211889;23;20168;-67
2023/01/07 11:06:49;;;;;;;2.57;2.37;;;;;;;;;;6209670;23;20897;-66
2023/01/07 11:09:35;;;;;;;2.70;2.33;;;;;;;;;;6184346;23;20618;-67
2023/01/07 11:12:15;;;;;;;2.80;2.00;;;;;;;;;;6184955;23;20358;-66
2023/01/07 11:14:43;;;;;;;3.90;2.60;;;;;;;;;;6212151;23;20404;-68
2023/01/07 11:17:14;;;;;;;4.80;2.50;;;;;;;;;;6212566;23;20398;-68
2023/01/07 11:19:53;;;;;;;2.50;2.30;;;;;;;;;;6210294;23;20367;-68
2023/01/07 11:22:26;;;;;;;5.10;2.83;;;;;;;;;;6206818;23;20366;-69
2023/01/07 11:24:52;;;;;;;3.03;2.23;;;;;;;;;;6180492;23;20375;-67
2023/01/07 11:29:55;;;;;;;4.23;2.30;;;;;;;;;;6235138;23;20734;-72
2023/01/07 11:32:25;;;;;;;3.20;2.53;;;;;;;;;;6207755;23;20398;-72
2023/01/07 11:34:55;;;;;;;4.87;2.40;;;;;;;;;;6207904;23;20435;-71
2023/01/07 11:37:32;;;;;;;3.20;2.40;;;;;;;;;;6176921;23;20379;-72
2023/01/07 11:39:59;;;;;;;4.33;2.37;;;;;;;;;;6208451;23;20417;-71
2023/01/07 11:42:39;;;;;;;6.23;2.20;;;;;;;;;;6183431;23;20375;-72
2023/01/07 11:45:24;;;;;;;2.80;2.50;;;;;;;;;;6209893;23;20879;-71
2023/01/07 11:47:52;;;;;;;3.07;2.00;;;;;;;;;;6183771;23;20383;-78
2023/01/07 11:50:25;;;;;;;4.73;2.20;;;;;;;;;;6208220;23;20375;-70
2023/01/07 11:52:54;;;;;;;2.33;2.03;;;;;;;;;;6208734;23;20874;-70
2023/01/07 11:55:21;;;;;;;8.13;2.53;;;;;;;;;;6209350;23;20879;-71
2023/01/07 11:57:51;;;;;;;1.93;1.60;;;;;;;;;;6204315;23;20358;-71
2023/01/07 12:00:17;;;;;;;2.20;1.67;;;;;;;;;;6209864;23;20379;-71
2023/01/07 12:02:42;;;;;;;2.30;1.93;;;;;;;;;;6210488;23;20370;-71
2023/01/07 12:05:21;;;;;;;3.03;1.53;;;;;;;;;;6210091;23;20152;-71
2023/01/07 12:07:47;;;;;;;3.67;1.70;;;;;;;;;;6208988;23;20930;-71
2023/01/07 12:10:23;;;;;;;2.33;1.30;;;;;;;;;;6181728;23;20429;-71
2023/01/07 12:12:49;;;;;;;1.80;1.30;;;;;;;;;;6210939;23;20438;-71
2023/01/07 12:15:25;;;;;;;1.60;1.13;;;;;;;;;;6210407;23;20394;-71
2023/01/07 12:18:01;;;;;;;1.73;1.33;;;;;;;;;;6210101;23;20148;-71
2023/01/07 12:20:39;;;;;;;4.60;1.50;;;;;;;;;;6211029;23;20371;-71
2023/01/07 12:23:17;;;;;;;2.33;1.43;;;;;;;;;;6210802;23;20359;-71
2023/01/07 12:26:11;;;;;;;2.10;1.27;;;;;;;;;;6210122;23;20985;-70
2023/01/07 12:28:42;;;;;;;2.37;1.10;;;;;;;;;;6195791;23;20734;-71
2023/01/07 12:31:16;;;;;;;1.77;1.33;;;;;;;;;;6183846;23;20403;-70
2023/01/07 12:33:53;;;;;;;1.90;1.40;;;;;;;;;;6184134;23;20379;-70
2023/01/07 12:36:37;;;;;;;3.00;1.37;;;;;;;;;;6212793;23;20378;-70
2023/01/07 12:39:04;;;;;;;2.33;1.40;;;;;;;;;;6229258;23;20393;-71
2023/01/07 12:41:36;;;;;;;3.10;1.43;;;;;;;;;;6209575;23;20466;-70
2023/01/07 12:44:11;;;;;;;2.30;1.40;;;;;;;;;;6181455;23;20371;-70
2023/01/07 12:46:43;;;;;;;2.23;1.77;;;;;;;;;;6202339;23;20529;-71
2023/01/07 12:49:14;;;;;;;4.20;1.80;;;;;;;;;;6180709;23;20440;-71
2023/01/07 12:51:43;;;;;;;2.60;1.90;;;;;;;;;;6208884;23;20870;-71
2023/01/07 12:54:16;;;;;;;7.10;1.80;;;;;;;;;;6183294;23;20695;-71
2023/01/07 12:56:46;;;;;;;2.13;1.30;;;;;;;;;;6183538;23;20466;-71
2023/01/07 12:59:12;;;;;;;2.90;1.47;;;;;;;;;;6183833;23;20379;-71
2023/01/07 13:01:49;;;;;;;3.40;1.63;;;;;;;;;;6209911;23;20394;-71
2023/01/07 13:04:40;;;;;;;2.23;1.20;;;;;;;;;;6208776;23;20194;-71
2023/01/07 13:07:15;;;;;;;2.40;1.33;;;;;;;;;;6181524;23;20425;-71
2023/01/07 13:09:45;;;;;;;2.27;1.40;;;;;;;;;;6207007;23;20385;-71
2023/01/07 13:15:00;;;;;;;1.90;1.40;;;;;;;;;;6206478;23;20401;-72
2023/01/07 13:17:29;;;;;;;1.40;1.30;;;;;;;;;;6184082;23;20425;-71
2023/01/07 13:19:55;;;;;;;2.43;1.47;;;;;;;;;;6176851;23;20383;-71
2023/01/07 13:22:33;;;;;;;3.60;1.70;;;;;;;;;;6205399;23;20377;-71
2023/01/07 13:24:58;;;;;;;2.80;1.67;;;;;;;;;;6181480;23;20227;-71
2023/01/07 13:27:44;;;;;;;1.67;1.30;;;;;;;;;;6207681;23;20834;-71
2023/01/07 13:30:17;;;;;;;1.80;1.33;;;;;;;;;;6208681;23;20214;-70
2023/01/07 13:32:46;;;;;;;2.20;1.33;;;;;;;;;;6182485;23;20858;-70
2023/01/07 13:35:20;;;;;;;2.27;1.43;;;;;;;;;;6180920;23;20473;-70
2023/01/07 13:38:08;;;;;;;1.53;1.30;;;;;;;;;;6179832;23;20375;-71
2023/01/07 13:40:51;;;;;;;1.63;1.37;;;;;;;;;;6180002;23;20399;-70
2023/01/07 13:43:31;;;;;;;2.00;1.43;;;;;;;;;;6182639;23;20448;-71
2023/01/07 13:46:07;;;;;;;3.30;1.80;;;;;;;;;;6209718;23;21008;-70
2023/01/07 13:48:33;;;;;;;3.40;1.40;;;;;;;;;;6206783;23;20367;-70
2023/01/07 13:51:04;;;;;;;3.10;1.73;;;;;;;;;;6207388;23;20387;-70
2023/01/07 13:53:31;;;;;;;1.57;1.10;;;;;;;;;;6180713;23;20375;-70
2023/01/07 13:56:15;;;;;;;1.40;1.20;;;;;;;;;;6205361;23;20367;-70
2023/01/07 13:58:52;;;;;;;3.03;1.57;;;;;;;;;;6203017;23;20977;-71
2023/01/07 14:01:33;;;;;;;2.30;1.10;;;;;;;;;;6207915;23;20397;-70
2023/01/07 14:04:05;;;;;;;3.53;1.73;;;;;;;;;;6205703;23;20362;-70
2023/01/07 14:06:35;;;;;;;1.23;1.10;;;;;;;;;;6205422;23;20802;-72
2023/01/07 14:09:06;;;;;;;1.70;0.97;;;;;;;;;;6178299;23;20453;-75
2023/01/07 14:11:31;;;;;;;2.47;1.07;;;;;;;;;;6178735;23;20505;-72
2023/01/07 14:13:59;;;;;;;1.60;1.50;;;;;;;;;;6205918;23;20391;-70
2023/01/07 14:16:34;;;;;;;1.87;1.50;;;;;;;;;;6206411;23;20284;-71
2023/01/07 14:19:07;;;;;;;1.53;1.10;;;;;;;;;;6207162;23;20367;-71
2023/01/07 14:21:38;;;;;;;1.97;1.37;;;;;;;;;;6176881;23;20419;-72
2023/01/07 14:24:22;;;;;;;1.67;1.43;;;;;;;;;;6209469;23;20364;-71
2023/01/07 14:26:47;;;;;;;1.93;1.10;;;;;;;;;;6210905;23;20442;-72
2023/01/07 14:29:22;;;;;;;3.33;1.30;;;;;;;;;;6210205;23;20460;-71
2023/01/07 14:31:51;;;;;;;2.63;1.53;;;;;;;;;;6205843;23;20163;-71
2023/01/07 14:34:16;;;;;;;2.07;1.60;;;;;;;;;;6209350;23;20425;-70
2023/01/07 14:37:03;;;;;;;1.40;1.00;;;;;;;;;;6208773;23;20366;-71
2023/01/07 14:39:33;;;;;;;1.70;1.23;;;;;;;;;;6179379;23;20187;-70
2023/01/07 14:42:17;;;;;;;2.13;1.63;;;;;;;;;;6183858;23;20901;-70
2023/01/07 14:44:42;;;;;;;1.73;1.10;;;;;;;;;;6207921;23;20397;-70
2023/01/07 14:47:11;;;;;;;1.67;1.20;;;;;;;;;;6210956;23;20414;-71